Time;durP1;ratioP1;P1;durP2;ratioP2;P2;SDS_P1;SDS_P2;PMS_P1;PMS_P2;Temp;Humidity;BMP_temperature;BMP_pressure;BME280_temperature;BME280_humidity;BME280_pressure;Samples;Min_cycle;Max_cycle;Signal;HPM_P1;HPM_P2
2022/12/08 00:01:25;;;;;;;20.73;10.25;;;;;;;2.24;72.33;97973.72;5049196;28;20032;-78
2022/12/08 00:03:51;;;;;;;21.60;11.38;;;;;;;2.26;71.83;97978.84;5049129;28;20025;-79
2022/12/08 00:09:22;;;;;;;20.13;10.73;;;;;;;2.23;72.29;97975.59;5048662;28;20032;-78
2022/12/08 00:11:52;;;;;;;18.40;10.27;;;;;;;2.23;72.22;97978.28;5049086;28;20119;-78
2022/12/08 00:14:19;;;;;;;17.95;9.63;;;;;;;2.22;72.47;97976.66;5048556;28;20052;-78
2022/12/08 00:16:44;;;;;;;18.13;10.18;;;;;;;2.20;72.51;97969.88;5048848;28;21425;-78
2022/12/08 00:19:10;;;;;;;17.65;10.10;;;;;;;2.15;72.39;97972.53;5049132;28;20051;-78
2022/12/08 00:21:35;;;;;;;18.05;10.40;;;;;;;2.11;72.24;97976.81;5048509;28;20074;-77
2022/12/08 00:24:00;;;;;;;17.15;9.50;;;;;;;2.10;72.54;97984.09;5047258;28;20029;-78
2022/12/08 00:26:26;;;;;;;16.75;9.25;;;;;;;2.08;72.09;97981.66;5048560;28;20033;-78
2022/12/08 00:28:53;;;;;;;18.67;10.23;;;;;;;2.07;72.11;97977.31;5048848;28;20033;-78
2022/12/08 00:31:18;;;;;;;21.38;11.60;;;;;;;2.06;71.84;97978.38;5048259;28;20488;-77
2022/12/08 00:33:43;;;;;;;18.20;10.93;;;;;;;2.06;72.41;97978.38;5048165;28;20029;-77
2022/12/08 00:36:13;;;;;;;16.85;9.65;;;;;;;2.03;72.43;97970.75;5049086;28;20035;-77
2022/12/08 00:38:40;;;;;;;16.60;9.10;;;;;;;2.01;72.02;97985.63;5048635;28;20563;-77
2022/12/08 00:41:14;;;;;;;15.57;9.68;;;;;;;2.01;72.80;97982.91;5049381;28;20021;-78
2022/12/08 00:43:40;;;;;;;20.52;9.95;;;;;;;2.01;72.02;97982.91;5047923;28;20063;-78
2022/12/08 00:46:05;;;;;;;17.27;9.68;;;;;;;2.02;72.00;97981.84;5050739;28;20029;-79
2022/12/08 00:48:31;;;;;;;20.30;10.57;;;;;;;2.02;72.51;97985.34;5049249;28;20089;-80
2022/12/08 00:50:56;;;;;;;17.23;9.88;;;;;;;2.05;72.46;97995.66;5049175;28;20025;-79
2022/12/08 00:53:22;;;;;;;15.55;9.27;;;;;;;2.04;73.03;98002.16;5049061;28;20087;-81
2022/12/08 00:55:47;;;;;;;17.58;10.20;;;;;;;2.05;72.21;98001.06;5049080;28;20021;-80
2022/12/08 00:58:12;;;;;;;17.48;9.73;;;;;;;2.05;72.94;98000.25;5047698;28;20094;-79
2022/12/08 01:00:42;;;;;;;18.15;9.98;;;;;;;2.07;73.06;98004.34;5049074;28;20029;-79
2022/12/08 01:03:11;;;;;;;15.90;10.13;;;;;;;2.10;72.13;98005.72;5047494;28;20385;-79
2022/12/08 01:05:37;;;;;;;17.95;9.88;;;;;;;2.10;72.86;98011.13;5048430;28;20085;-79
2022/12/08 01:08:06;;;;;;;15.98;9.00;;;;;;;2.13;72.78;98016.03;5047915;28;20033;-78
2022/12/08 01:10:35;;;;;;;15.02;9.40;;;;;;;2.13;72.44;98018.75;5049130;28;20021;-79
2022/12/08 01:13:00;;;;;;;16.58;9.10;;;;;;;2.15;72.78;98015.81;5048794;28;20021;-78
2022/12/08 01:15:25;;;;;;;15.68;8.90;;;;;;;2.16;72.87;98018.25;5049071;28;20369;-81
2022/12/08 01:17:51;;;;;;;21.50;10.05;;;;;;;2.17;72.73;98021.78;5048672;28;20029;-79
2022/12/08 01:20:16;;;;;;;21.60;12.32;;;;;;;2.18;72.50;98020.72;5048105;28;20102;-78
2022/12/08 01:22:42;;;;;;;17.35;9.65;;;;;;;2.19;72.15;98022.34;5048326;28;20018;-78
2022/12/08 01:25:07;;;;;;;13.57;8.32;;;;;;;2.20;72.25;98018.56;5047963;28;20032;-78
2022/12/08 01:27:33;;;;;;;14.05;8.48;;;;;;;2.21;72.91;98023.72;5050581;28;20476;-77
2022/12/08 01:29:58;;;;;;;16.48;9.38;;;;;;;2.21;72.37;98021.03;5052326;28;20024;-78
2022/12/08 01:32:23;;;;;;;15.68;9.27;;;;;;;2.22;72.39;98022.66;5052061;28;20029;-78
2022/12/08 01:34:49;;;;;;;17.58;9.93;;;;;;;2.25;72.81;98018.63;5049482;28;20444;-78
2022/12/08 01:37:14;;;;;;;21.40;11.10;;;;;;;2.25;72.61;98017.81;5052546;28;20035;-77
2022/12/08 01:39:40;;;;;;;20.45;11.20;;;;;;;2.25;73.10;98020.50;5051867;28;20124;-77
2022/12/08 01:42:17;;;;;;;17.48;9.25;;;;;;;2.25;72.02;98015.91;5052170;28;20037;-78
2022/12/08 01:44:42;;;;;;;15.38;8.60;;;;;;;2.26;72.63;98009.44;5052264;28;20017;-78
2022/12/08 01:47:08;;;;;;;18.70;10.02;;;;;;;2.26;72.29;98011.31;5051380;28;20028;-75
2022/12/08 01:49:35;;;;;;;21.50;10.68;;;;;;;2.26;72.74;98014.03;5051897;28;20557;-78
2022/12/08 01:52:35;;;;;;;16.23;9.52;;;;;;;2.26;72.17;98012.13;5051565;28;20029;-78
2022/12/08 01:55:18;;;;;;;16.73;9.13;;;;;;;2.24;72.96;98006.19;5051065;28;20496;-78
2022/12/08 01:57:47;;;;;;;14.50;8.25;;;;;;;2.23;72.44;98007.25;5051032;28;20029;-78
2022/12/08 02:00:17;;;;;;;14.65;8.55;;;;;;;2.23;72.88;98009.97;5048748;28;20037;-78
2022/12/08 02:03:03;;;;;;;13.13;8.10;;;;;;;2.22;72.17;98003.72;5050103;28;20025;-78
2022/12/08 02:05:31;;;;;;;17.75;9.60;;;;;;;2.21;73.01;98003.97;5049034;28;20033;-77
2022/12/08 02:07:57;;;;;;;18.70;8.77;;;;;;;2.21;72.20;98003.97;5049303;28;20044;-77
2022/12/08 02:10:26;;;;;;;20.38;10.43;;;;;;;2.20;72.06;98003.16;5050176;28;20604;-77
2022/12/08 02:12:55;;;;;;;16.48;9.95;;;;;;;2.19;72.28;97992.59;5049405;28;20116;-78
2022/12/08 02:15:31;;;;;;;13.95;8.93;;;;;;;2.16;72.54;97993.91;5052120;28;20029;-78
2022/12/08 02:18:05;;;;;;;16.00;8.85;;;;;;;2.15;72.97;98010.41;5047751;28;20035;-77
2022/12/08 02:21:07;;;;;;;15.35;8.77;;;;;;;2.10;72.33;97994.09;5051183;28;20495;-77
2022/12/08 02:23:53;;;;;;;15.55;9.18;;;;;;;2.08;72.97;97992.47;5051585;28;20037;-78
2022/12/08 02:26:30;;;;;;;22.63;11.65;;;;;;;2.06;72.49;97989.19;5048378;28;20040;-78
2022/12/08 02:29:40;;;;;;;15.27;8.95;;;;;;;2.04;72.22;97998.63;5049202;28;20029;-78
2022/12/08 02:32:17;;;;;;;17.23;10.30;;;;;;;2.02;72.32;97996.16;4992752;28;20050;-77
2022/12/08 02:34:51;;;;;;;16.85;9.65;;;;;;;2.03;72.11;97988.88;4992149;28;20125;-78
2022/12/08 02:37:30;;;;;;;15.50;9.02;;;;;;;2.01;72.20;97999.16;5023930;28;20477;-78
2022/12/08 02:39:59;;;;;;;22.17;11.55;;;;;;;1.99;72.19;97993.16;5047939;28;20421;-77
2022/12/08 02:42:24;;;;;;;18.50;10.10;;;;;;;1.99;72.22;97993.97;5048633;28;20040;-78
2022/12/08 02:45:02;;;;;;;19.55;10.85;;;;;;;1.97;72.65;97996.09;5050098;28;20029;-77
2022/12/08 02:47:31;;;;;;;18.42;10.07;;;;;;;1.96;72.60;97991.75;5050432;28;20068;-78
2022/12/08 02:49:56;;;;;;;18.05;10.73;;;;;;;1.97;72.29;97990.69;5044599;28;20391;-77
2022/12/08 02:52:21;;;;;;;16.10;9.02;;;;;;;1.99;73.00;97993.97;5049983;28;20029;-77
2022/12/08 02:54:55;;;;;;;15.57;9.10;;;;;;;2.03;73.20;97997.81;5049655;28;20109;-76
2022/12/08 02:57:50;;;;;;;17.58;10.93;;;;;;;2.03;72.48;97997.00;5047954;28;20028;-76
2022/12/08 03:00:18;;;;;;;20.50;11.10;;;;;;;2.05;73.08;97994.84;5049493;28;20029;-77
2022/12/08 03:02:50;;;;;;;18.00;11.45;;;;;;;2.05;72.96;97990.25;5048317;28;20533;-77
2022/12/08 03:05:18;;;;;;;19.83;11.38;;;;;;;2.07;73.13;97993.53;5050937;28;20535;-76
2022/12/08 03:07:52;;;;;;;20.50;11.60;;;;;;;2.07;72.19;97995.41;5042199;28;20032;-77
2022/12/08 03:10:39;;;;;;;17.98;9.52;;;;;;;2.07;72.42;97998.09;5050941;28;20037;-76
2022/12/08 03:13:19;;;;;;;20.38;11.32;;;;;;;2.08;72.60;98000.56;5050731;28;20843;-77
2022/12/08 03:15:49;;;;;;;19.27;10.82;;;;;;;2.08;73.13;98003.28;5049761;28;20029;-77
2022/12/08 03:18:17;;;;;;;17.15;10.40;;;;;;;2.08;72.42;97995.16;5049918;28;20427;-77
2022/12/08 03:20:45;;;;;;;17.30;9.77;;;;;;;2.10;72.46;97994.91;5050105;28;20021;-77
2022/12/08 03:23:13;;;;;;;15.30;9.05;;;;;;;2.08;72.39;97997.03;5049856;28;20074;-78
2022/12/08 03:25:57;;;;;;;21.33;12.20;;;;;;;2.07;72.35;97995.41;5050955;28;20021;-77
2022/12/08 03:28:22;;;;;;;18.30;9.48;;;;;;;2.06;72.69;97986.47;5045582;28;20029;-77
2022/12/08 03:30:53;;;;;;;16.58;9.55;;;;;;;2.08;72.85;97991.63;5049060;28;20367;-77
2022/12/08 03:33:28;;;;;;;16.55;9.45;;;;;;;2.10;72.52;97989.50;5049919;28;20041;-77
2022/12/08 03:35:54;;;;;;;17.13;10.15;;;;;;;2.10;72.40;97985.97;5048419;28;20501;-77
2022/12/08 03:38:20;;;;;;;21.55;11.48;;;;;;;2.05;72.74;97976.72;5048344;28;20082;-77
2022/12/08 03:41:17;;;;;;;20.60;10.27;;;;;;;2.05;72.73;97970.50;5049473;28;20426;-77
2022/12/08 03:43:31;;;;;;;20.40;11.10;;;;;;;2.04;72.61;97974.25;5046335;28;20477;-77
2022/12/08 03:45:56;;;;;;;20.83;10.30;;;;;;;2.06;73.30;97975.66;5048546;28;20036;-77
2022/12/08 03:48:22;;;;;;;16.38;9.18;;;;;;;2.08;73.10;97976.22;5048923;28;20032;-77
2022/12/08 03:50:47;;;;;;;17.05;9.70;;;;;;;2.09;72.57;97982.44;5049140;28;20025;-77
2022/12/08 03:53:14;;;;;;;16.10;9.60;;;;;;;2.08;72.61;97975.41;5046020;28;20095;-77
2022/12/08 03:55:39;;;;;;;16.95;10.07;;;;;;;2.06;72.76;97982.94;5049081;28;20024;-77
2022/12/08 03:58:04;;;;;;;20.10;10.85;;;;;;;2.04;73.15;97977.81;5045832;28;20095;-77
2022/12/08 04:00:30;;;;;;;17.80;9.45;;;;;;;2.05;72.45;97986.72;5050516;28;20038;-77
2022/12/08 04:02:55;;;;;;;16.23;9.23;;;;;;;2.03;72.76;97986.19;5047682;28;20035;-76
2022/12/08 04:05:20;;;;;;;17.52;9.40;;;;;;;2.01;72.55;97985.63;5049434;28;20025;-77
2022/12/08 04:07:46;;;;;;;15.00;8.77;;;;;;;2.01;72.76;97974.81;5044791;28;20069;-77
2022/12/08 04:10:11;;;;;;;18.63;9.43;;;;;;;1.99;73.22;97985.84;5047606;28;20045;-77
2022/12/08 04:12:38;;;;;;;18.83;10.70;;;;;;;1.98;73.09;97973.41;5047913;28;20033;-77
2022/12/08 04:15:03;;;;;;;18.17;10.20;;;;;;;2.00;73.16;97967.75;5050768;28;20116;-77
2022/12/08 04:17:29;;;;;;;16.45;9.30;;;;;;;2.00;72.72;97976.66;5047547;28;20101;-77
2022/12/08 04:19:54;;;;;;;15.32;8.77;;;;;;;1.99;72.49;97966.91;5046426;28;20071;-77
2022/12/08 04:22:19;;;;;;;18.15;10.30;;;;;;;1.98;72.50;97970.69;5047534;28;20083;-77
2022/12/08 04:24:45;;;;;;;19.92;9.57;;;;;;;2.00;72.58;97975.88;5048159;28;20036;-77
2022/12/08 04:27:10;;;;;;;17.35;9.32;;;;;;;2.00;73.05;97968.56;5046431;28;20061;-76
2022/12/08 04:29:35;;;;;;;18.98;10.20;;;;;;;2.01;72.42;97972.91;5049803;28;20021;-77
2022/12/08 04:32:01;;;;;;;18.48;10.20;;;;;;;2.03;72.81;97973.47;5048206;28;20032;-77
2022/12/08 04:34:26;;;;;;;17.40;9.30;;;;;;;2.06;72.94;97964.00;5047758;28;20032;-77
2022/12/08 04:36:52;;;;;;;16.23;8.95;;;;;;;2.04;72.83;97968.84;5048778;28;20056;-77
2022/12/08 04:39:17;;;;;;;16.58;9.60;;;;;;;2.05;73.26;97965.09;5048484;28;20116;-77
2022/12/08 04:41:42;;;;;;;15.82;9.43;;;;;;;2.04;72.53;97969.69;5047232;28;20029;-76
2022/12/08 04:44:08;;;;;;;17.60;10.10;;;;;;;2.07;72.83;97963.78;5047761;28;20712;-77
2022/12/08 04:46:33;;;;;;;17.58;9.20;;;;;;;2.11;72.97;97964.06;5047655;28;20128;-77
2022/12/08 04:48:58;;;;;;;17.65;10.30;;;;;;;2.13;72.73;97964.63;5049146;28;20029;-77
2022/12/08 04:51:26;;;;;;;21.02;10.18;;;;;;;2.15;73.14;97967.09;5047757;28;20041;-77
2022/12/08 04:53:51;;;;;;;18.00;9.52;;;;;;;2.14;72.54;97966.28;5047712;28;20397;-77
2022/12/08 04:56:18;;;;;;;17.92;9.85;;;;;;;2.16;72.57;97969.53;5046476;28;20024;-77
2022/12/08 04:58:44;;;;;;;18.33;9.77;;;;;;;2.17;72.60;97963.06;5047803;28;20041;-77
2022/12/08 05:01:10;;;;;;;18.77;9.75;;;;;;;2.19;72.85;97973.66;5052190;28;20033;-77
2022/12/08 05:03:35;;;;;;;15.30;9.27;;;;;;;2.21;72.97;97963.41;5053680;28;20025;-77
2022/12/08 05:06:01;;;;;;;17.00;9.18;;;;;;;2.21;72.26;97964.19;5054013;28;20029;-77
2022/12/08 05:08:27;;;;;;;20.17;10.27;;;;;;;2.20;72.55;97959.06;5053156;28;20469;-77
2022/12/08 05:10:52;;;;;;;17.70;10.00;;;;;;;2.20;72.39;97965.25;5052657;28;20032;-77
2022/12/08 05:13:18;;;;;;;15.88;9.55;;;;;;;2.21;73.08;97961.50;5052384;28;20401;-77
2022/12/08 05:15:43;;;;;;;17.58;10.40;;;;;;;2.23;72.60;97962.06;5053602;28;20048;-77
2022/12/08 05:18:09;;;;;;;16.48;10.65;;;;;;;2.26;73.04;97968.03;5052865;28;20033;-77
2022/12/08 05:20:34;;;;;;;21.85;11.90;;;;;;;2.27;72.60;97967.75;5051096;28;20032;-77
2022/12/08 05:23:00;;;;;;;18.38;10.40;;;;;;;2.26;72.58;97976.94;5051978;28;20025;-77
2022/12/08 05:25:26;;;;;;;16.17;10.07;;;;;;;2.25;72.09;97972.63;5053998;28;20382;-77
2022/12/08 05:27:51;;;;;;;20.70;9.82;;;;;;;2.25;72.64;97972.63;5052815;28;20024;-77
2022/12/08 05:30:16;;;;;;;19.20;9.90;;;;;;;2.26;72.66;97966.13;5053009;28;20035;-77
2022/12/08 05:32:42;;;;;;;17.95;10.20;;;;;;;2.28;72.16;97960.47;5053401;28;20104;-77
2022/12/08 05:35:07;;;;;;;20.00;10.70;;;;;;;2.25;72.83;97971.81;5052093;28;20021;-77
2022/12/08 05:37:33;;;;;;;17.02;10.05;;;;;;;2.21;71.79;97956.06;5052877;28;20037;-77
2022/12/08 05:39:58;;;;;;;22.63;11.40;;;;;;;2.17;71.78;97962.25;5050773;28;20020;-77
2022/12/08 05:42:24;;;;;;;18.08;10.38;;;;;;;2.16;72.48;97956.03;5053458;28;20541;-77
2022/12/08 05:44:49;;;;;;;20.60;11.05;;;;;;;2.15;72.05;97959.00;5051741;28;20021;-77
2022/12/08 05:47:14;;;;;;;22.42;12.57;;;;;;;2.14;71.80;97965.47;5050048;28;20108;-77
2022/12/08 05:49:40;;;;;;;22.20;12.00;;;;;;;2.11;72.67;97966.78;5053513;28;20021;-77
2022/12/08 05:52:05;;;;;;;18.10;9.95;;;;;;;2.10;71.96;97957.03;5053429;28;20354;-77
2022/12/08 05:54:31;;;;;;;18.17;10.57;;;;;;;2.07;72.45;97955.66;5052744;28;20119;-77
2022/12/08 05:56:56;;;;;;;21.05;11.73;;;;;;;2.08;72.08;97960.00;5051369;28;20107;-77
2022/12/08 05:59:21;;;;;;;22.63;12.20;;;;;;;2.05;72.20;97957.81;5050448;28;20053;-76
2022/12/08 06:01:47;;;;;;;21.35;11.65;;;;;;;2.03;72.68;97959.94;5054130;28;20029;-76
2022/12/08 06:04:12;;;;;;;19.25;10.73;;;;;;;2.03;72.60;97969.97;5055395;28;20037;-78
2022/12/08 06:06:38;;;;;;;20.75;11.25;;;;;;;2.03;72.95;97972.66;5054068;28;20037;-78
2022/12/08 06:09:04;;;;;;;21.10;11.48;;;;;;;2.02;72.51;97968.31;5051448;28;20106;-78
2022/12/08 06:11:31;;;;;;;19.67;11.20;;;;;;;2.02;72.52;97969.13;5051740;28;20094;-78
2022/12/08 06:13:57;;;;;;;21.90;12.07;;;;;;;2.00;72.80;97970.47;5050854;28;20029;-78
2022/12/08 06:16:25;;;;;;;23.27;11.43;;;;;;;2.01;72.08;97974.81;5053574;28;20032;-78
2022/12/08 06:18:51;;;;;;;22.17;12.95;;;;;;;2.00;71.92;97983.97;5051726;28;20431;-78
2022/12/08 06:21:17;;;;;;;22.65;12.50;;;;;;;2.01;72.30;97981.00;5052142;28;20032;-79
2022/12/08 06:23:43;;;;;;;20.60;11.45;;;;;;;2.03;72.18;97984.28;5049993;28;20586;-81
2022/12/08 06:26:11;;;;;;;22.55;12.07;;;;;;;2.05;72.11;97990.25;5051054;28;20029;-81
2022/12/08 06:28:38;;;;;;;20.95;11.55;;;;;;;2.07;72.09;97982.72;5053823;28;20033;-80
2022/12/08 06:31:13;;;;;;;20.38;12.35;;;;;;;2.07;72.02;97988.13;5049363;28;20035;-82
2022/12/08 06:33:38;;;;;;;21.58;12.68;;;;;;;2.10;72.32;97996.81;5050443;28;20040;-76
2022/12/08 06:36:05;;;;;;;24.08;14.07;;;;;;;2.11;72.59;97982.22;5049554;28;20059;-82
2022/12/08 06:38:30;;;;;;;22.77;14.60;;;;;;;2.13;72.07;97990.88;5050872;28;20056;-78
2022/12/08 06:40:57;;;;;;;21.75;12.60;;;;;;;2.13;72.17;97999.81;5054727;28;20127;-78
2022/12/08 06:43:23;;;;;;;23.95;13.75;;;;;;;2.15;72.48;97996.88;5051005;28;20042;-78
2022/12/08 06:45:48;;;;;;;22.10;14.25;;;;;;;2.19;72.03;98001.50;5051601;28;20481;-78
2022/12/08 06:48:15;;;;;;;21.95;12.55;;;;;;;2.25;72.86;98002.38;5048514;28;20040;-78
2022/12/08 06:50:40;;;;;;;19.52;11.75;;;;;;;2.29;72.11;98006.22;5049329;28;20035;-78
2022/12/08 06:53:05;;;;;;;23.77;13.40;;;;;;;2.32;72.08;98005.72;5045645;28;20049;-77
2022/12/08 06:55:31;;;;;;;23.58;13.77;;;;;;;2.34;72.20;98002.78;5047715;28;20108;-78
2022/12/08 06:57:57;;;;;;;19.38;11.07;;;;;;;2.35;72.00;98002.50;5048807;28;20111;-78
2022/12/08 07:00:22;;;;;;;19.30;11.27;;;;;;;2.37;72.16;98007.69;5047223;28;20049;-78
2022/12/08 07:02:48;;;;;;;21.30;11.57;;;;;;;2.36;72.44;98006.84;5049054;28;20021;-77
2022/12/08 07:05:13;;;;;;;18.77;10.98;;;;;;;2.36;71.71;98008.75;5048707;28;20543;-77
2022/12/08 07:07:40;;;;;;;22.52;11.18;;;;;;;2.34;72.06;98003.56;5049291;28;20060;-76
2022/12/08 07:10:06;;;;;;;21.40;11.15;;;;;;;2.33;71.67;98010.06;5048922;28;20508;-78
2022/12/08 07:12:31;;;;;;;18.58;10.63;;;;;;;2.32;71.69;98004.91;5047359;28;20028;-77
2022/12/08 07:14:57;;;;;;;21.45;11.85;;;;;;;2.34;71.54;98002.78;5047376;28;20021;-78
2022/12/08 07:17:22;;;;;;;19.80;11.27;;;;;;;2.33;72.37;98009.25;5049238;28;20769;-78
2022/12/08 07:19:47;;;;;;;18.88;11.43;;;;;;;2.35;72.39;98001.69;5050079;28;20029;-78
2022/12/08 07:22:13;;;;;;;21.27;10.93;;;;;;;2.36;71.85;97996.00;5048897;28;20513;-78
2022/12/08 07:24:38;;;;;;;19.17;10.52;;;;;;;2.40;71.78;97995.50;5049891;28;20079;-78
2022/12/08 07:27:03;;;;;;;19.55;10.20;;;;;;;2.44;72.54;97992.06;5049832;28;20036;-77
2022/12/08 07:29:29;;;;;;;23.13;12.32;;;;;;;2.47;72.25;97994.22;5050130;28;20025;-78
2022/12/08 07:31:54;;;;;;;20.27;11.25;;;;;;;2.49;72.37;98002.09;5048889;28;20052;-78
2022/12/08 07:34:19;;;;;;;18.95;11.07;;;;;;;2.50;71.37;98006.44;5050062;28;20024;-78
2022/12/08 07:36:45;;;;;;;17.92;9.90;;;;;;;2.53;71.74;97993.22;5049729;28;20052;-78
2022/12/08 07:39:10;;;;;;;20.45;11.38;;;;;;;2.57;71.40;97998.94;5049720;28;20053;-77
2022/12/08 07:41:35;;;;;;;18.35;11.15;;;;;;;2.61;71.72;98005.50;5049384;28;20033;-78
2022/12/08 07:44:01;;;;;;;17.98;10.07;;;;;;;2.66;72.40;98005.53;5049787;28;20679;-78
2022/12/08 07:46:26;;;;;;;20.25;12.23;;;;;;;2.72;71.34;98002.88;5049946;28;20036;-78
2022/12/08 07:48:53;;;;;;;20.10;11.43;;;;;;;2.78;71.65;98007.25;5049661;28;20431;-78
2022/12/08 07:51:19;;;;;;;22.65;11.70;;;;;;;2.80;71.68;98003.25;5049774;28;20037;-77
2022/12/08 07:53:46;;;;;;;20.73;12.35;;;;;;;2.86;71.79;98005.97;5044553;28;20413;-78
2022/12/08 07:56:12;;;;;;;20.33;12.00;;;;;;;2.87;71.43;98004.91;5049400;28;20120;-77
2022/12/08 07:58:38;;;;;;;25.90;14.48;;;;;;;2.88;71.77;98001.13;5048183;28;20640;-78
2022/12/08 08:01:04;;;;;;;22.30;12.93;;;;;;;2.91;71.18;98009.56;5049501;28;20040;-80
2022/12/08 08:03:29;;;;;;;23.00;13.15;;;;;;;2.94;71.89;98000.91;5049382;28;20029;-77
2022/12/08 08:06:01;;;;;;;24.27;13.95;;;;;;;2.97;71.63;97996.88;5049829;28;20063;-77
2022/12/08 08:08:26;;;;;;;20.98;12.85;;;;;;;3.01;71.57;98002.59;5049087;28;20025;-77
2022/12/08 08:10:52;;;;;;;24.23;13.77;;;;;;;3.04;71.67;97994.75;5049545;28;20585;-76
2022/12/08 08:13:17;;;;;;;25.70;12.75;;;;;;;3.11;71.76;97995.38;5045378;28;20033;-77
2022/12/08 08:15:43;;;;;;;20.75;10.90;;;;;;;3.15;71.50;97987.53;5049018;28;20029;-77
2022/12/08 08:18:08;;;;;;;21.15;12.00;;;;;;;3.14;70.69;97988.59;5046783;28;20025;-77
2022/12/08 08:20:34;;;;;;;20.30;11.90;;;;;;;3.17;71.27;97990.78;5047754;28;20057;-77
2022/12/08 08:22:59;;;;;;;19.60;11.07;;;;;;;3.20;70.63;98001.13;5049785;28;20032;-77
2022/12/08 08:25:26;;;;;;;21.85;11.80;;;;;;;3.25;70.90;97986.81;5048723;28;20028;-75
2022/12/08 08:27:51;;;;;;;19.75;10.45;;;;;;;3.25;71.04;97987.63;5048360;28;20041;-75
2022/12/08 08:30:17;;;;;;;22.15;12.35;;;;;;;3.33;71.56;97999.06;5047129;28;20029;-74
2022/12/08 08:32:42;;;;;;;21.52;11.95;;;;;;;3.36;70.89;97995.81;5047894;28;20020;-73
2022/12/08 08:35:08;;;;;;;22.27;12.52;;;;;;;3.36;70.89;97990.41;5047340;28;20124;-76
2022/12/08 08:37:34;;;;;;;17.73;11.50;;;;;;;3.38;70.80;97996.38;5048825;28;20047;-76
2022/12/08 08:39:59;;;;;;;21.55;11.48;;;;;;;3.42;70.56;97995.59;5048042;28;20162;-77
2022/12/08 08:42:26;;;;;;;20.95;10.55;;;;;;;3.46;69.64;97990.47;5048982;28;20122;-77
2022/12/08 08:44:51;;;;;;;17.50;10.25;;;;;;;3.49;70.78;97995.34;5049085;28;20036;-76
2022/12/08 08:47:17;;;;;;;20.90;10.30;;;;;;;3.51;70.40;97998.63;5048306;28;20060;-76
2022/12/08 08:49:42;;;;;;;19.17;10.65;;;;;;;3.54;70.64;98002.72;5047619;28;20029;-77
2022/12/08 08:52:07;;;;;;;21.15;11.70;;;;;;;3.58;70.47;98003.84;5048444;28;20742;-78
2022/12/08 08:54:33;;;;;;;18.15;10.52;;;;;;;3.62;70.20;98004.94;5048707;28;20036;-75
2022/12/08 08:56:59;;;;;;;19.15;10.75;;;;;;;3.66;69.78;98007.94;5048700;28;20552;-79
2022/12/08 08:59:26;;;;;;;18.45;10.60;;;;;;;3.70;70.34;98015.28;5049316;28;20453;-76
2022/12/08 09:01:52;;;;;;;21.83;12.65;;;;;;;3.73;70.30;98012.03;5049894;28;20370;-77
2022/12/08 09:04:17;;;;;;;22.80;12.57;;;;;;;3.78;69.46;98003.13;5049663;28;20072;-78
2022/12/08 09:06:44;;;;;;;22.02;12.23;;;;;;;3.82;68.83;98008.84;5049866;28;20512;-78
2022/12/08 09:09:09;;;;;;;46.70;22.08;;;;;;;3.83;69.13;98010.47;5049605;28;20034;-78
2022/12/08 09:11:35;;;;;;;65.85;28.15;;;;;;;3.85;69.49;98008.31;5048929;28;20132;-78
2022/12/08 09:14:02;;;;;;;48.95;22.00;;;;;;;3.85;68.97;98014.56;5049625;28;20098;-77
2022/12/08 09:16:27;;;;;;;25.02;12.77;;;;;;;3.85;69.13;97997.47;5049825;28;20478;-78
2022/12/08 09:18:53;;;;;;;32.95;18.90;;;;;;;3.87;69.57;97995.31;5049716;28;20025;-77
2022/12/08 09:21:24;;;;;;;24.10;12.98;;;;;;;3.92;68.98;97991.78;5047689;28;20512;-78
2022/12/08 09:23:56;;;;;;;23.95;12.07;;;;;;;3.95;69.03;97991.25;5048465;28;20036;-77
2022/12/08 09:26:22;;;;;;;21.30;11.52;;;;;;;3.97;68.53;97992.66;5048723;28;20074;-77
2022/12/08 09:28:49;;;;;;;18.35;10.43;;;;;;;3.99;68.53;97989.66;5049683;28;20116;-78
2022/12/08 09:31:16;;;;;;;20.10;9.68;;;;;;;4.02;68.61;97976.41;5048803;28;20024;-76
2022/12/08 09:33:42;;;;;;;19.17;11.02;;;;;;;4.02;68.51;97978.28;5048964;28;20126;-78
2022/12/08 09:36:08;;;;;;;18.95;10.68;;;;;;;4.06;67.91;97973.16;5049330;28;20026;-76
2022/12/08 09:38:34;;;;;;;18.42;10.40;;;;;;;4.04;68.19;97973.41;5049302;28;20155;-77
2022/12/08 09:41:03;;;;;;;16.95;9.63;;;;;;;4.05;67.16;97964.19;5048932;28;20021;-77
2022/12/08 09:43:55;;;;;;;19.95;10.70;;;;;;;4.04;67.74;97967.97;5048956;28;20036;-76
2022/12/08 09:46:20;;;;;;;18.50;10.30;;;;;;;4.05;67.26;97961.47;5046871;28;20025;-77
2022/12/08 09:48:54;;;;;;;17.35;9.23;;;;;;;4.05;67.60;97953.31;5052164;28;20098;-76
2022/12/08 09:51:23;;;;;;;19.05;10.45;;;;;;;4.03;67.09;97960.91;5052502;28;20094;-78
2022/12/08 09:54:24;;;;;;;17.88;9.48;;;;;;;4.00;67.09;97953.31;5051507;28;20553;-77
2022/12/08 09:56:54;;;;;;;18.00;10.70;;;;;;;3.99;66.59;97948.94;5037584;28;20036;-78
2022/12/08 09:59:29;;;;;;;21.85;12.00;;;;;;;3.98;67.13;97959.00;5051147;28;20025;-78
2022/12/08 10:01:55;;;;;;;16.95;9.02;;;;;;;4.01;67.22;97961.19;5050238;28;20067;-78
2022/12/08 10:04:31;;;;;;;16.02;8.55;;;;;;;4.00;65.81;97956.00;5051173;28;20053;-78
2022/12/08 10:07:01;;;;;;;17.08;10.15;;;;;;;3.98;66.73;97953.59;5052212;28;20094;-77
2022/12/08 10:09:26;;;;;;;15.30;10.15;;;;;;;4.04;66.53;97950.88;5052097;28;20029;-76
2022/12/08 10:12:21;;;;;;;18.38;10.27;;;;;;;4.05;66.54;97955.25;5052025;28;20591;-77
2022/12/08 10:14:54;;;;;;;19.10;9.90;;;;;;;4.08;66.25;97951.97;5052100;28;20029;-78
2022/12/08 10:17:33;;;;;;;14.90;9.35;;;;;;;4.09;66.14;97954.44;5050354;28;20108;-77
2022/12/08 10:20:08;;;;;;;16.20;9.02;;;;;;;4.11;65.71;97949.56;5045727;28;20496;-77
2022/12/08 10:22:34;;;;;;;23.80;12.85;;;;;;;4.12;66.13;97956.59;5048266;28;20477;-77
2022/12/08 10:25:06;;;;;;;22.52;10.45;;;;;;;4.12;66.20;97948.47;5046579;28;20075;-75
2022/12/08 10:27:34;;;;;;;16.25;9.43;;;;;;;4.10;65.39;97941.66;5047715;28;20039;-74
2022/12/08 10:30:00;;;;;;;20.27;11.48;;;;;;;4.09;66.17;97951.72;5049668;28;20100;-74
2022/12/08 10:32:33;;;;;;;19.80;10.20;;;;;;;4.11;65.98;97951.44;5048242;28;20532;-78
2022/12/08 10:35:05;;;;;;;18.38;12.07;;;;;;;4.13;66.60;97935.69;5046969;28;20109;-77
2022/12/08 10:37:30;;;;;;;21.42;11.70;;;;;;;4.13;66.74;97938.41;5047986;28;20481;-77
2022/12/08 10:40:14;;;;;;;23.45;12.07;;;;;;;4.15;67.23;97937.09;5049804;28;20087;-75
2022/12/08 10:42:46;;;;;;;25.35;13.63;;;;;;;4.22;66.80;97941.44;5049567;28;20040;-76
2022/12/08 10:45:14;;;;;;;24.02;13.43;;;;;;;4.25;66.98;97940.91;5051567;28;20489;-77
2022/12/08 10:47:41;;;;;;;23.77;11.90;;;;;;;4.27;66.78;97944.19;5050422;28;20096;-77
2022/12/08 10:50:22;;;;;;;21.38;11.38;;;;;;;4.28;65.97;97940.38;5049902;28;20021;-77
2022/12/08 10:52:55;;;;;;;22.83;12.43;;;;;;;4.28;66.43;97945.81;5050174;28;20096;-77
2022/12/08 10:55:20;;;;;;;24.08;13.02;;;;;;;4.28;66.24;97937.66;5048230;28;20029;-75
2022/12/08 10:57:51;;;;;;;19.05;10.38;;;;;;;4.30;66.27;97938.19;5043570;28;20381;-78
2022/12/08 11:00:25;;;;;;;20.23;10.70;;;;;;;4.26;66.33;97937.13;5046946;28;20025;-77
2022/12/08 11:03:03;;;;;;;18.83;9.68;;;;;;;4.17;65.55;97932.19;5049655;28;20056;-78
2022/12/08 11:05:34;;;;;;;17.67;9.70;;;;;;;4.17;66.32;97932.19;5048188;28;20021;-79
2022/12/08 11:08:00;;;;;;;16.75;9.38;;;;;;;4.14;66.46;97927.31;5048312;28;20043;-78
2022/12/08 11:10:42;;;;;;;17.40;10.38;;;;;;;4.16;66.50;97924.31;5050058;28;20040;-79
2022/12/08 11:13:17;;;;;;;16.23;9.45;;;;;;;4.16;66.55;97927.03;5048267;28;20563;-77
2022/12/08 11:15:45;;;;;;;19.38;11.52;;;;;;;4.19;66.92;97923.78;5045521;28;20029;-78
2022/12/08 11:18:26;;;;;;;17.15;9.93;;;;;;;4.21;67.02;97926.25;5050384;28;20079;-78
2022/12/08 11:21:04;;;;;;;19.90;11.88;;;;;;;4.27;66.81;97922.47;5049967;28;20036;-80
2022/12/08 11:23:33;;;;;;;17.10;10.63;;;;;;;4.28;66.87;97924.91;5048599;28;20024;-79
2022/12/08 11:26:04;;;;;;;18.55;10.13;;;;;;;4.29;66.55;97922.97;5048939;28;20032;-77
2022/12/08 11:28:30;;;;;;;16.55;9.65;;;;;;;4.28;66.25;97922.19;5050044;28;20044;-81
2022/12/08 11:31:13;;;;;;;16.58;10.00;;;;;;;4.28;66.53;97919.47;5048774;28;20033;-81
2022/12/08 11:33:40;;;;;;;19.67;10.65;;;;;;;4.34;67.14;97922.19;5044217;28;20033;-80
2022/12/08 11:36:11;;;;;;;27.55;13.50;;;;;;;4.40;67.07;97921.91;5048167;28;20053;-80